Résultats

LA ROUTE DE L ETOILE
LA ROUTE DE L ETOILE. Édition 2019.

85.5 Km
10/02/2019 à 09:00:00 - ALES (30)
192 arrivant(e)s.


 
Les autres classements de cet évènement




Place▲ Temps Dossard Nom Prenom Categ #Categ Sexe #Sexe ClubVit Moy Diplôme Partager
1 02:10:07 204 ALLUE JULIEN C 1 M 1 AC CLAPIERS39.00
2 02:10:12 368 RICCI-POGGI MARTIAL D 1 M 2 39.00
3 02:10:13 202 ALBARET DAMIEN D 2 M 3 TEAM MONTAGNAC AC39.00
4 02:10:14 373 ROUAT GEOFFREY C 2 M 4 TEAM MONTAGNAC AC39.00
5 02:10:14 234 BRESSOLIS LAURENT E 1 M 5 VC MAURS39.00
6 02:10:16 416 CHEVAILLIER JEREMIE C 3 M 6 39.00
7 02:10:26 258 DAGORNE FLORIAN D 3 M 7 TEAM MONTAGNAC AC39.00
8 02:10:30 374 ROUQUETTE LOIC C 4 M 8 TEAM MONTAGNAC AC39.00
9 02:10:36 383 SERRES LORENZO C 5 M 9 EC ANDUZE39.00
10 02:10:41 400 VAILHE CLEMENT C 6 M 10 NIMES CYCLISME39.00
11 02:10:41 315 KANEL FLORIAN C 7 M 11 NIMES CYCLISME39.00
12 02:11:19 228 BOZZETTO PATRICE E 2 M 12 SJVC MONTELIMAR39.00
13 02:11:19 407 VIALAT GEOFFREY D 4 M 13 VELO CLUB SALINDRES ST PRIVAT39.00
14 02:11:19 355 PILLET EMMANUEL E 3 M 14 39.00
15 02:11:19 338 MERLE JULIEN C 8 M 15 VC SALINDRES39.00
16 02:11:20 257 CZARNEKI LOIC D 5 M 16 39.00
17 02:11:20 269 DONADILLE FREDERIC C 9 M 17 AC ROGNONAS39.00
18 02:11:20 270 DONATI FRANCK E 4 M 18 VC RAMBERTOIS39.00
19 02:11:21 347 NOGUERA CAMILLE C 10 M 19 BMC BEZIERS39.00
20 02:11:21 285 FOULONGNE JULES C 11 M 20 LA NUIT NOIRE CYCLING CLUB39.00
21 02:11:23 413 DENA BRUNO D 6 M 21 39.00
22 02:11:23 327 LE-LUE KEVIN C 12 M 22 UC MONTMEYRAN VALENCE39.00
23 02:11:23 221 BLANC VINCENT C 13 M 23 TEYRAN BIKE 3439.00
24 02:11:24 216 BECARUD THOMAS C 14 M 24 TREK-VELO 10139.00
25 02:11:24 382 SERES LIONEL D 7 M 25 MASSALIA CYCLISME39.00
26 02:11:24 301 GRAPPIN MARC-ANTOINE C 15 M 26 LNN.CC39.00
27 02:11:25 308 HILAIRE RAPHAEL D 8 M 27 39.00
28 02:11:25 240 CANTONI VINCENT D 9 M 28 TEAM MONTAGNAC AC39.00
29 02:11:26 357 PONS LAURENT E 5 M 29 VELO CLUB DE MAUGUIO39.00
30 02:11:26 391 THEODET WILLIAM C 16 M 30 UCSV LA SPORT CONSEIL39.00
31 02:11:28 372 ROUANET XAVIER D 10 M 31 ALBI VELO SPORT39.00
32 02:11:32 330 LORTHIOIR PAUL-EMILE C 17 M 32 TREK-VELO 10139.00
33 02:11:32 236 BRUTTOMESSO DANIEL F 1 M 33 VC LA POMME MARSEILLE39.00
34 02:11:34 211 AUDOUARD JIMMY C 18 M 34 VC PIERRELATTE38.00
35 02:11:34 299 GLACIAL NICOLAS E 6 M 35 FIRSTEAM 6438.00
36 02:11:34 256 CRETE BASTIEN C 19 M 36 VCA38.00
37 02:11:35 276 FAVEREAU CYRIL D 11 M 37 U S PLAISANCE CYCLISME38.00
38 02:11:39 381 SEGURA GUILLAUME D 12 M 38 RO SISTERON38.00
39 02:11:47 286 FOULONNEAU PAUL C 20 M 39 38.00
40 02:11:47 292 GATHIER THIBAULT C 21 M 40 UCMV38.00
41 02:11:49 282 FORINO MICKAEL C 22 M 41 TEAM BOUTICYCLE ALES38.00
42 02:11:49 366 REBOUL YVES F 2 M 42 VC MIRAMAS38.00
43 02:11:50 310 JAFFRE THOMAS C 23 M 43 MAT38.00
44 02:11:50 247 CHANTON CHRISTOPHE D 13 M 44 USC-VAISON LA ROMAINE38.00
45 02:11:50 375 ROUSSEAU CHRISTOPHE D 14 M 45 RO SISTERON38.00
46 02:11:52 263 DE-MARANS FLORIAN C 24 M 46 TEAM MONTAGNAC AC38.00
47 02:12:54 323 LAVAUZELLE FREDERIC D 15 M 47 MONDOVELO/ECB/LA NUIT NOIR CYCLING38.00
48 02:13:48 412 ZUCCONI JEAN-MARIE E 7 M 48 VELO CLUB PORTO-VECCHIAIS38.00
49 02:13:48 289 GARCIA PABLO C 25 M 49 NIMES CYCLISME38.00
50 02:14:10 379 SAORIN ARNAUD C 26 M 50 UCSV LA SPORT CONSEIL38.00
51 02:14:10 410 WEISS HUGO C 27 M 51 ESSOR CYCLISTE ANDUZIEN38.00
52 02:14:20 212 AUJOULAT CYRIL D 16 M 52 VSGA38.00
53 02:14:31 232 BREA-GONZALEZ GREGORY D 17 M 53 VC PIERRELATTE38.00
54 02:14:32 209 AUBERY JEAN-FRANCOIS D 18 M 54 ES CAVAILLON38.00
55 02:14:32 226 BOUQUIN MICHAEL E 8 M 55 ESSOR CYCLISTE ANDUZIEN38.00
56 02:14:33 376 ROUSSEL THOMAS D 19 M 56 VCSSP38.00
57 02:14:33 291 GARY HERVE E 9 M 57 NIMES CYCLISME38.00
58 02:14:33 203 ALBARET GUILLAUME C 28 M 58 38.00
59 02:14:33 244 CAZASSUS BRUNO E 10 M 59 38.00
60 02:14:33 272 DUQUENNE BRUNO E 11 M 60 USC VAISON LA ROMAINE38.00
61 02:14:34 284 FOUILLOUX SERGE E 12 M 61 ROC38.00
62 02:14:35 279 FERNANDEZ SACHA C 29 M 62 AVC FABREGUES38.00
63 02:14:35 316 KAUFMANN JASON C 30 M 63 TEYRAN BIKE 3438.00
64 02:14:37 353 PERROUX DAVID E 13 M 64 VC DES ALPILLES38.00
65 02:14:37 403 VALLENARI SEBASTIEN D 20 M 65 U S PLAISANCE CYCLISME38.00
66 02:14:38 206 AMALOU AURELIEN D 21 M 66 TEAM MONTAGNAC AC38.00
67 02:14:38 322 LAURENT REGIS E 14 M 67 CYCLO SPORT CAVAILLON38.00
68 02:14:38 318 LAFFONT ERIC F 3 M 68 TEAM MONTAGNAC AC38.00
69 02:14:40 371 ROCHEDY EMILIE A 1 F 1 TREK-VELO 10138.00
70 02:14:41 387 SMITH LUDOVIC D 22 M 69 SAINT MATHIEU DE TREVIERS38.00
71 02:14:41 288 GALLES JEAN-PAUL G 1 M 70 VC MONTOIS38.00
72 02:14:42 277 FAVEREAU JEAN-JACQUES F 4 M 71 U S PLAISANCE CYCLISME38.00
73 02:14:43 225 BOUDIGNON JEREMY C 31 M 72 SAINT CHELY CYCLISME38.00
74 02:14:44 393 THOMAS SYLVAIN D 23 M 73 LA NUIT NOIRE CYCLING CLUB38.00
75 02:14:54 360 PRADEILLES OLIVIER E 15 M 74 AC CLAPIERS38.00
76 02:15:22 380 SEBILLE LEO C 32 M 75 CVC MONTFAVET37.00
77 02:15:53 321 LARCO KEVIN C 33 M 76 UNION CYCLISTE ALBENASSIENNE37.00
78 02:16:04 239 CAMPOS-HULL DANIEL C 34 M 77 LNN.CC37.00
79 02:16:20 303 GRUZELLE YOACHIM C 35 M 78 37.00
80 02:17:59 396 TOLLERON YVES-ROBERT F 5 M 79 MONTPELLIER MAT37.00
81 02:18:18 296 GERBAL BRUNO E 16 M 80 TMB ST AUNES37.00
82 02:18:57 266 DIAZ JEAN-LUC F 6 M 81 ASPH MONTPELLIER36.00
83 02:18:57 306 HANNOYE JEROME D 24 M 82 NIMES CYCLISME36.00
84 02:18:58 331 LOTT HUGO C 36 M 83 VELO CLUB AUBAGNAIS36.00
85 02:18:59 397 TROPET OLIVIER E 17 M 84 USC VAISON LA ROMAINE36.00
86 02:19:20 207 AMENGUAL ROMAIN C 37 M 85 LA NUIT NOIRE CYCLING CLUB36.00
87 02:19:23 369 RICHY MICHAEL D 25 M 86 USCV36.00
88 02:19:29 237 BUATOIS GILLES F 7 M 87 UC PIERRELATTE36.00
89 02:24:56 342 MORRA CAMILLE C 38 M 88 AC ROGNONAS35.00
90 02:24:56 233 BRES NICOLAS C 39 M 89 TEAM ATC 26 DONZERE35.00
91 02:25:58 359 POULENAS FABIEN C 40 M 90 AVC FABREGUES35.00
92 02:27:41 401 VALIERGUES ERIC E 18 M 91 TEAM SPIRIT BIKE34.00
93 02:27:42 267 DJILLALI WILLIAM E 19 M 92 VELO CLUB SALINDRES34.00
94 02:27:42 283 FORMEAU CHRISTOPHE E 20 M 93 34.00
95 02:27:43 243 CARRE DAVID E 21 M 94 ASPH34.00
96 02:27:44 392 THIRION FREDERIC E 22 M 95 SALON CYCLOSPORT34.00
97 02:27:46 349 PAYAN OLIVIER D 26 M 96 TEAM RPM34.00
98 02:27:47 252 COSTA CYRIL E 23 M 97 VELO CLUB SALINDRES34.00
99 02:27:48 388 SOURBADERE JOEL E 24 M 98 U S PLAISANCE CYCLISME34.00
100 02:27:49 363 QUAY STEPHANE E 25 M 99 CS CRAVEN34.00
101 02:27:50 334 MARLY MICHEL F 8 M 100 VCSSP34.00